Time;durP1;ratioP1;P1;durP2;ratioP2;P2;SDS_P1;SDS_P2;PMS_P1;PMS_P2;Temp;Humidity;BMP_temperature;BMP_pressure;BME280_temperature;BME280_humidity;BME280_pressure;Samples;Min_cycle;Max_cycle;Signal;HPM_P1;HPM_P2
2022/08/27 00:00:29;;;;;;;7.65;5.83;;;;;;;25.79;58.35;100487.79;2279865;76;51533;-75
2022/08/27 00:03:31;;;;;;;7.05;5.80;;;;;;;25.77;58.33;100488.55;2329363;76;50310;-75
2022/08/27 00:06:34;;;;;;;9.80;6.12;;;;;;;25.77;58.35;100488.55;2334778;76;50311;-75
2022/08/27 00:09:37;;;;;;;9.13;5.92;;;;;;;25.77;58.31;100474.17;2303150;76;51577;-75
2022/08/27 00:12:40;;;;;;;7.28;6.05;;;;;;;25.77;58.33;100475.00;2334780;76;51538;-75
2022/08/27 00:15:42;;;;;;;8.73;6.58;;;;;;;25.77;58.35;100475.00;2302847;76;50970;-76
2022/08/27 00:18:44;;;;;;;10.20;6.60;;;;;;;25.77;58.31;100470.94;2366860;75;51476;-76
2022/08/27 00:21:47;;;;;;;12.68;8.75;;;;;;;25.76;58.29;100467.91;2397044;73;50108;-76
2022/08/27 00:24:49;;;;;;;12.63;9.00;;;;;;;25.76;58.29;100459.78;2283658;76;49436;-75
2022/08/27 00:27:51;;;;;;;9.43;7.40;;;;;;;25.76;58.27;100457.06;2279123;75;51540;-75
2022/08/27 00:30:58;;;;;;;10.68;7.15;;;;;;;25.75;58.29;100450.01;2357781;75;50727;-76
2022/08/27 00:33:57;;;;;;;11.65;8.00;;;;;;;25.75;58.26;100441.88;2300291;76;22326;-76
2022/08/27 00:37:00;;;;;;;11.88;8.20;;;;;;;25.75;58.25;100443.23;2349525;75;50814;-75
2022/08/27 00:40:02;;;;;;;11.38;7.85;;;;;;;25.77;58.24;100447.08;2315850;75;52416;-76
2022/08/27 00:43:04;;;;;;;9.88;8.18;;;;;;;25.76;58.23;100444.88;2315592;75;50050;-81
2022/08/27 00:46:09;;;;;;;13.15;7.53;;;;;;;25.74;58.24;100448.38;2374837;75;50650;-76
2022/08/27 00:49:18;;;;;;;11.57;7.92;;;;;;;25.74;58.25;100447.02;2334288;75;50770;-76
2022/08/27 00:52:27;;;;;;;12.60;7.87;;;;;;;25.75;58.24;100455.43;2332097;75;51524;-76
2022/08/27 00:55:36;;;;;;;8.43;7.47;;;;;;;25.74;58.25;100449.73;2318533;76;51481;-76
2022/08/27 00:58:41;;;;;;;11.40;7.60;;;;;;;25.73;58.25;100452.12;2318518;75;51442;-76
2022/08/27 01:05:07;;;;;;;11.18;8.00;;;;;;;25.74;58.26;100447.52;2318918;76;22422;-77
2022/08/27 01:08:11;;;;;;;12.18;7.62;;;;;;;25.72;58.28;100451.02;2318239;75;51539;-76
2022/08/27 01:11:14;;;;;;;12.25;7.50;;;;;;;25.72;58.27;100459.97;2318500;76;50426;-76
2022/08/27 01:14:16;;;;;;;10.35;7.72;;;;;;;25.72;58.29;100461.33;2306324;76;49606;-76
2022/08/27 01:17:18;;;;;;;9.58;7.25;;;;;;;25.71;58.31;100460.19;2306152;76;50352;-75
2022/08/27 01:20:23;;;;;;;10.13;6.97;;;;;;;25.71;58.30;100451.53;2319040;75;50275;-75
2022/08/27 01:23:43;;;;;;;10.75;7.55;;;;;;;25.71;58.31;100446.11;2353846;75;49955;-76
2022/08/27 01:26:46;;;;;;;10.78;7.12;;;;;;;25.70;58.29;100443.11;2354650;75;51561;-76
2022/08/27 01:29:48;;;;;;;11.57;6.78;;;;;;;25.71;58.31;100446.64;2329578;75;52794;-76
2022/08/27 01:32:50;;;;;;;9.88;6.65;;;;;;;25.71;58.31;100448.00;2298479;75;52086;-77
2022/08/27 01:35:52;;;;;;;9.05;6.60;;;;;;;25.70;58.33;100448.53;2354669;75;51468;-77
2022/08/27 01:38:55;;;;;;;7.67;6.90;;;;;;;25.70;58.35;100459.38;2303928;75;50959;-77
2022/08/27 01:42:06;;;;;;;8.68;6.47;;;;;;;25.70;58.33;100452.60;2354992;75;51387;-77
2022/08/27 01:45:13;;;;;;;8.58;6.22;;;;;;;25.72;58.31;100455.91;2354540;75;50234;-75
2022/08/27 01:48:17;;;;;;;9.08;6.20;;;;;;;25.70;58.34;100455.31;2320504;75;51487;-76
2022/08/27 01:51:19;;;;;;;9.83;6.67;;;;;;;25.69;58.34;100450.97;2320071;75;51534;-78
2022/08/27 01:54:21;;;;;;;8.83;6.40;;;;;;;25.70;58.36;100455.84;2267719;77;52474;-77
2022/08/27 01:57:23;;;;;;;8.33;6.40;;;;;;;25.69;58.35;100453.67;2288817;77;50309;-78
2022/08/27 02:00:31;;;;;;;10.48;6.40;;;;;;;25.70;58.39;100449.89;2263888;77;50398;-76
2022/08/27 02:03:35;;;;;;;9.53;6.08;;;;;;;25.69;58.36;100448.25;2289053;77;49573;-76
2022/08/27 02:06:37;;;;;;;9.15;6.30;;;;;;;25.69;58.38;100450.97;2299292;77;24510;-76
2022/08/27 02:09:39;;;;;;;9.58;6.47;;;;;;;25.69;58.38;100453.67;2298994;77;51492;-76
2022/08/27 02:12:42;;;;;;;8.80;6.75;;;;;;;25.69;58.39;100452.32;2289099;77;50264;-76
2022/08/27 02:15:44;;;;;;;10.13;6.50;;;;;;;25.69;58.40;100465.87;2263798;77;50233;-76
2022/08/27 02:18:46;;;;;;;9.83;6.15;;;;;;;25.69;58.43;100459.09;2261904;77;50726;-76
2022/08/27 02:21:49;;;;;;;7.62;5.92;;;;;;;25.68;58.45;100461.48;2273558;77;51523;-76
2022/08/27 02:24:51;;;;;;;9.20;6.30;;;;;;;25.69;58.40;100452.32;2299140;77;51439;-76
2022/08/27 02:27:53;;;;;;;10.55;6.53;;;;;;;25.69;58.37;100460.45;2263624;77;50349;-76
2022/08/27 02:30:55;;;;;;;8.45;6.30;;;;;;;25.68;58.48;100464.20;2263789;77;50313;-76
2022/08/27 02:33:57;;;;;;;8.58;6.85;;;;;;;25.68;58.48;100470.97;2299163;77;50568;-76
2022/08/27 02:37:00;;;;;;;8.63;6.42;;;;;;;25.68;58.48;100470.97;2237504;77;49551;-76
2022/08/27 02:40:03;;;;;;;10.93;6.37;;;;;;;25.68;58.48;100471.51;2299020;77;50260;-76
2022/08/27 02:43:05;;;;;;;9.70;6.75;;;;;;;25.67;58.42;100468.52;2263917;77;49621;-75
2022/08/27 02:46:08;;;;;;;8.65;6.30;;;;;;;25.66;58.48;100466.31;2298956;77;51505;-76
2022/08/27 02:49:10;;;;;;;13.68;6.70;;;;;;;25.67;58.57;100465.27;2296347;77;51524;-76
2022/08/27 02:52:12;;;;;;;15.53;7.08;;;;;;;25.68;58.46;100464.20;2241877;76;50973;-74
2022/08/27 02:55:15;;;;;;;11.10;6.28;;;;;;;25.68;58.54;100468.80;2315117;76;50312;-76
2022/08/27 02:58:17;;;;;;;8.90;6.60;;;;;;;25.68;58.52;100468.80;2314978;76;51571;-75
2022/08/27 03:01:19;;;;;;;8.48;6.33;;;;;;;25.68;58.57;100471.51;2290882;76;51387;-75
2022/08/27 03:04:22;;;;;;;14.35;6.78;;;;;;;25.68;58.57;100474.22;2321091;75;51571;-74
2022/08/27 03:07:24;;;;;;;12.25;7.60;;;;;;;25.67;58.62;100469.34;2290914;76;49493;-76
2022/08/27 03:10:27;;;;;;;9.13;6.47;;;;;;;25.66;58.66;100467.67;2290750;76;50372;-76
2022/08/27 03:13:29;;;;;;;10.10;6.75;;;;;;;25.67;58.61;100473.94;2291083;76;50594;-77
2022/08/27 03:16:36;;;;;;;10.05;7.00;;;;;;;25.67;58.63;100473.94;2314919;76;51415;-76
2022/08/27 03:19:38;;;;;;;11.88;7.15;;;;;;;25.67;58.63;100470.69;2315073;76;50619;-76
2022/08/27 03:22:41;;;;;;;12.93;7.40;;;;;;;25.67;58.67;100471.23;2290915;76;53925;-76
2022/08/27 03:25:46;;;;;;;10.85;7.22;;;;;;;25.67;58.67;100469.34;2290863;76;50672;-76
2022/08/27 03:28:48;;;;;;;13.45;7.67;;;;;;;25.67;58.67;100469.88;2314732;76;51565;-77
2022/08/27 03:31:50;;;;;;;13.32;7.67;;;;;;;25.67;58.72;100459.85;2267724;75;52385;-78
2022/08/27 03:34:52;;;;;;;13.38;7.03;;;;;;;25.67;58.69;100459.85;2299536;76;53772;-77
2022/08/27 03:37:55;;;;;;;12.43;7.37;;;;;;;25.66;58.73;100456.83;2296410;76;52145;-77
2022/08/27 03:40:57;;;;;;;13.38;7.37;;;;;;;25.66;58.75;100456.01;2297321;76;49549;-79
2022/08/27 03:43:59;;;;;;;14.93;7.30;;;;;;;25.67;58.82;100456.32;2323422;76;51406;-77
2022/08/27 03:47:01;;;;;;;13.32;6.83;;;;;;;25.66;58.82;100458.72;2322630;76;50746;-76
2022/08/27 03:50:04;;;;;;;12.40;8.43;;;;;;;25.67;58.81;100460.39;2322884;76;51348;-78
2022/08/27 03:53:07;;;;;;;12.00;7.55;;;;;;;25.67;58.81;100453.61;2322291;76;51556;-77
2022/08/27 03:56:09;;;;;;;11.95;7.72;;;;;;;25.67;58.84;100458.50;2317311;76;50567;-75
2022/08/27 03:59:11;;;;;;;14.18;7.37;;;;;;;25.66;58.83;100458.72;2309450;76;51421;-75
2022/08/27 04:02:15;;;;;;;11.63;7.62;;;;;;;25.67;58.88;100457.67;2319261;76;51516;-75
2022/08/27 04:05:17;;;;;;;14.10;7.83;;;;;;;25.66;58.93;100456.01;2249160;76;50026;-74
2022/08/27 04:08:20;;;;;;;11.10;7.85;;;;;;;25.67;58.87;100450.37;2284526;76;51502;-74
2022/08/27 04:11:23;;;;;;;12.93;8.90;;;;;;;25.67;58.94;100450.91;2318579;76;50641;-75
2022/08/27 04:14:25;;;;;;;13.43;8.05;;;;;;;25.65;58.93;100449.77;2259868;76;50277;-75
2022/08/27 04:17:28;;;;;;;10.08;7.67;;;;;;;25.63;58.98;100455.41;2284759;76;51456;-74
2022/08/27 04:20:30;;;;;;;11.25;7.60;;;;;;;25.63;59.11;100452.70;2284752;76;52538;-74
2022/08/27 04:23:33;;;;;;;12.13;7.42;;;;;;;25.64;59.02;100454.91;2310610;76;50328;-75
2022/08/27 04:26:35;;;;;;;13.98;7.87;;;;;;;25.64;59.03;100461.14;2284557;76;51486;-74
2022/08/27 04:29:37;;;;;;;15.00;8.28;;;;;;;25.66;59.14;100460.08;2259717;76;51248;-74
2022/08/27 04:32:39;;;;;;;12.60;7.87;;;;;;;25.65;59.12;100460.61;2287227;76;50035;-74
2022/08/27 04:35:42;;;;;;;15.03;8.35;;;;;;;25.66;59.10;100460.08;2314715;76;50685;-75
2022/08/27 04:38:44;;;;;;;14.75;8.58;;;;;;;25.65;59.18;100457.90;2316541;76;50607;-75
2022/08/27 04:41:49;;;;;;;14.93;8.53;;;;;;;25.65;59.24;100457.90;2266810;76;50108;-76
2022/08/27 04:44:52;;;;;;;11.55;8.55;;;;;;;25.65;59.21;100457.90;2316827;76;49884;-76
2022/08/27 04:47:54;;;;;;;12.75;8.85;;;;;;;25.65;59.23;100466.03;2323573;76;50248;-75
2022/08/27 04:50:56;;;;;;;17.50;9.58;;;;;;;25.65;59.25;100461.97;2323828;76;50701;-76
2022/08/27 04:53:59;;;;;;;12.23;8.33;;;;;;;25.63;59.40;100458.13;2303314;75;51605;-76
2022/08/27 04:57:02;;;;;;;12.60;8.45;;;;;;;25.65;59.15;100460.61;2320577;75;50244;-76
2022/08/27 05:00:06;;;;;;;15.30;9.28;;;;;;;25.66;59.19;100470.38;2315165;76;50714;-74
2022/08/27 05:03:08;;;;;;;12.00;9.45;;;;;;;25.65;59.24;100461.97;2291450;76;22451;-74
2022/08/27 05:06:11;;;;;;;15.08;8.53;;;;;;;25.66;59.26;100473.63;2315111;76;50740;-74
2022/08/27 05:09:13;;;;;;;12.95;8.08;;;;;;;25.65;59.29;100471.45;2294548;76;51070;-75
2022/08/27 05:12:16;;;;;;;13.68;7.87;;;;;;;25.64;59.30;100473.88;2355077;75;50335;-75
2022/08/27 05:15:18;;;;;;;13.18;8.05;;;;;;;25.65;59.23;100472.80;2355198;75;50651;-75
2022/08/27 05:18:20;;;;;;;13.28;7.53;;;;;;;25.63;59.40;100465.44;2303800;75;50933;-76
2022/08/27 05:21:28;;;;;;;12.15;7.47;;;;;;;25.64;59.33;100473.88;2355005;75;51451;-75
2022/08/27 05:24:31;;;;;;;14.73;7.85;;;;;;;25.66;59.29;100473.09;2354897;75;50068;-75
2022/08/27 05:27:33;;;;;;;18.40;7.65;;;;;;;25.65;59.28;100476.87;2298787;75;51598;-75
2022/08/27 05:30:37;;;;;;;10.70;7.08;;;;;;;25.64;59.27;100477.41;2354893;75;50389;-75
2022/08/27 05:33:39;;;;;;;14.75;6.92;;;;;;;25.64;59.25;100473.88;2355070;75;50439;-75
2022/08/27 05:36:41;;;;;;;11.35;7.00;;;;;;;25.65;59.14;100474.16;2297200;75;52485;-74
2022/08/27 05:39:44;;;;;;;19.37;8.20;;;;;;;25.64;59.10;100467.92;2331080;75;51436;-75
2022/08/27 05:42:46;;;;;;;14.83;7.12;;;;;;;25.64;59.10;100470.63;2297330;75;51002;-74
2022/08/27 05:45:49;;;;;;;11.53;6.85;;;;;;;25.64;59.08;100473.34;2324601;75;51585;-75
2022/08/27 05:48:51;;;;;;;11.25;6.97;;;;;;;25.66;59.08;100470.38;2354867;75;50663;-74
2022/08/27 05:51:53;;;;;;;13.62;7.45;;;;;;;25.66;59.04;100479.05;2356897;75;51528;-74
2022/08/27 05:54:56;;;;;;;11.63;7.10;;;;;;;25.64;59.02;100482.00;2335378;75;50268;-75
2022/08/27 05:57:58;;;;;;;11.45;6.83;;;;;;;25.64;58.99;100474.70;2309139;74;52556;-74
2022/08/27 06:01:03;;;;;;;13.95;7.03;;;;;;;25.62;59.03;100476.80;2329989;75;50669;-75
2022/08/27 06:04:06;;;;;;;8.10;6.92;;;;;;;25.64;58.96;100477.94;2370614;75;51459;-75
2022/08/27 06:07:09;;;;;;;7.83;7.00;;;;;;;25.63;58.96;100478.98;2302089;75;50913;-75
2022/08/27 06:10:11;;;;;;;8.63;6.67;;;;;;;25.64;58.92;100480.65;2360503;75;50365;-75
2022/08/27 06:13:14;;;;;;;9.10;6.37;;;;;;;25.63;58.97;100484.41;2296397;76;53634;-77
2022/08/27 06:16:17;;;;;;;12.30;6.40;;;;;;;25.62;58.96;100488.19;2296039;76;51326;-75
2022/08/27 06:19:19;;;;;;;11.65;7.05;;;;;;;25.63;58.88;100485.22;2330263;76;50421;-74
2022/08/27 06:22:22;;;;;;;8.75;6.50;;;;;;;25.62;58.94;100486.83;2295966;76;52432;-74
2022/08/27 06:25:24;;;;;;;10.05;6.10;;;;;;;25.62;58.89;100481.41;2330236;76;50385;-74
2022/08/27 06:28:30;;;;;;;8.95;6.33;;;;;;;25.62;58.83;100479.52;2329908;76;51612;-74
2022/08/27 06:31:33;;;;;;;11.45;6.12;;;;;;;25.62;58.87;100491.71;2295861;76;51030;-74
2022/08/27 06:34:36;;;;;;;9.25;6.33;;;;;;;25.62;58.85;100497.13;2322070;76;50290;-74
2022/08/27 06:37:38;;;;;;;8.58;6.35;;;;;;;25.60;58.87;100495.17;2338116;75;50622;-74
2022/08/27 06:40:41;;;;;;;7.90;6.35;;;;;;;25.62;58.81;100496.31;2335370;75;51476;-74
2022/08/27 06:43:43;;;;;;;6.78;5.50;;;;;;;25.61;58.80;100505.48;2330061;75;51536;-74
2022/08/27 06:46:45;;;;;;;7.20;6.25;;;;;;;25.61;58.85;100500.06;2335060;75;51160;-74
2022/08/27 06:49:48;;;;;;;10.78;5.62;;;;;;;25.60;58.76;100501.13;2304432;75;51383;-74
2022/08/27 06:52:50;;;;;;;7.97;5.75;;;;;;;25.61;58.74;100504.13;2370627;75;50302;-74
2022/08/27 06:55:52;;;;;;;8.33;6.08;;;;;;;25.61;58.74;100505.48;2335367;75;49537;-74
2022/08/27 06:58:59;;;;;;;7.87;5.35;;;;;;;25.60;58.69;100507.37;2370939;74;50641;-74
2022/08/27 07:02:01;;;;;;;8.53;5.55;;;;;;;25.60;58.75;100507.91;2371042;75;50293;-78
2022/08/27 07:05:03;;;;;;;6.87;5.50;;;;;;;25.61;58.71;100516.32;2330020;75;50275;-76
2022/08/27 07:08:06;;;;;;;7.45;5.78;;;;;;;25.59;58.71;100520.63;2329398;75;50287;-76
2022/08/27 07:11:11;;;;;;;8.15;5.95;;;;;;;25.60;58.66;100526.34;2300085;76;50091;-76
2022/08/27 07:14:13;;;;;;;;;;;;;;;25.59;58.70;100521.98;2333238;76;52351;-76
2022/08/27 07:17:16;;;;;;;6.67;5.12;;;;;;;25.62;58.61;100530.18;2330297;76;51510;-75
2022/08/27 07:20:18;;;;;;;7.67;5.50;;;;;;;25.61;58.59;100526.66;2296138;76;49966;-76
2022/08/27 07:23:20;;;;;;;6.60;5.72;;;;;;;25.59;58.61;100524.70;2296377;76;50296;-78
2022/08/27 07:26:23;;;;;;;6.12;5.15;;;;;;;25.59;58.67;100532.01;2329994;76;50269;-75
2022/08/27 07:29:25;;;;;;;6.37;5.15;;;;;;;25.59;58.64;100524.70;2330191;76;51453;-75
2022/08/27 07:32:28;;;;;;;6.75;5.17;;;;;;;25.58;58.62;100529.80;2330361;76;51358;-79
2022/08/27 07:35:30;;;;;;;9.48;6.28;;;;;;;25.59;58.64;100531.47;2296702;76;51573;-76
2022/08/27 07:38:33;;;;;;;7.45;5.33;;;;;;;25.57;58.64;100532.23;2334026;75;50636;-76
2022/08/27 07:44:24;;;;;;;6.67;5.60;;;;;;;25.59;58.62;100532.01;2330510;76;51595;-76
2022/08/27 07:44:41;;;;;;;6.55;5.80;;;;;;;25.59;58.58;100527.94;2318786;76;22155;-75
2022/08/27 07:47:44;;;;;;;8.88;5.35;;;;;;;25.59;58.57;100515.75;2296198;76;50240;-76
2022/08/27 07:50:46;;;;;;;6.67;5.35;;;;;;;25.57;58.60;100512.44;2330313;76;50605;-74
2022/08/27 07:53:48;;;;;;;7.08;5.47;;;;;;;25.57;58.54;100526.81;2282503;76;52422;-74
2022/08/27 07:56:50;;;;;;;6.95;5.40;;;;;;;25.59;58.46;100525.23;2333233;75;50348;-75
2022/08/27 07:59:52;;;;;;;7.83;5.28;;;;;;;25.57;58.53;100520.03;2334576;76;51488;-74
2022/08/27 08:02:55;;;;;;;6.85;4.97;;;;;;;25.57;58.53;100515.97;2334775;76;50648;-75
2022/08/27 08:05:58;;;;;;;6.37;5.55;;;;;;;25.58;58.50;100524.92;2337402;75;52647;-75
2022/08/27 08:09:01;;;;;;;6.17;4.97;;;;;;;25.57;58.54;100525.99;2318609;76;52605;-75
2022/08/27 08:12:03;;;;;;;7.53;5.25;;;;;;;25.57;58.52;100530.05;2253152;75;52526;-75
2022/08/27 08:15:07;;;;;;;6.72;5.45;;;;;;;25.56;58.54;100532.45;2325656;75;50301;-74
2022/08/27 08:18:09;;;;;;;6.83;5.45;;;;;;;25.55;58.54;100538.94;2311115;74;51603;-75
2022/08/27 08:21:13;;;;;;;5.20;4.72;;;;;;;25.56;58.50;100531.09;2344420;74;51492;-74
2022/08/27 08:24:15;;;;;;;7.87;5.10;;;;;;;25.56;58.52;100538.72;2375734;74;51447;-75
2022/08/27 08:27:18;;;;;;;6.90;5.22;;;;;;;25.56;58.48;100539.22;2341991;75;52462;-75
2022/08/27 08:30:20;;;;;;;5.95;4.80;;;;;;;25.56;58.46;100535.16;2369596;74;50630;-76
2022/08/27 08:33:22;;;;;;;5.95;4.80;;;;;;;25.57;58.44;100539.53;2342342;75;51403;-75
2022/08/27 08:36:25;;;;;;;6.55;5.17;;;;;;;25.57;58.40;100528.70;2341590;74;50235;-74
2022/08/27 08:39:27;;;;;;;6.65;5.28;;;;;;;25.58;58.37;100520.86;2323478;75;50282;-75
2022/08/27 08:42:34;;;;;;;5.00;4.53;;;;;;;25.59;58.28;100514.39;2315676;75;50336;-75
2022/08/27 08:45:37;;;;;;;6.58;5.10;;;;;;;25.58;58.26;100507.30;2350517;75;50152;-78
2022/08/27 08:48:41;;;;;;;5.33;4.53;;;;;;;25.57;58.31;100505.67;2350515;75;51472;-77
2022/08/27 08:51:43;;;;;;;5.83;4.80;;;;;;;25.56;58.28;100503.50;2317971;75;51202;-75
2022/08/27 08:54:45;;;;;;;5.15;4.45;;;;;;;25.58;58.25;100501.89;2342666;75;50699;-76
2022/08/27 08:58:06;;;;;;;5.40;4.90;;;;;;;25.58;58.24;100501.89;2321673;75;51447;-76
2022/08/27 09:01:08;;;;;;;5.80;4.85;;;;;;;25.58;58.23;100504.06;2284346;76;51837;-74
2022/08/27 09:04:10;;;;;;;6.62;5.08;;;;;;;25.57;58.18;100508.37;2284115;76;51414;-74
2022/08/27 09:07:33;;;;;;;4.87;4.40;;;;;;;25.59;58.14;100503.56;2320134;76;51535;-75
2022/08/27 09:10:36;;;;;;;4.95;4.20;;;;;;;;;;2194166;78;22423;-75
2022/08/27 09:13:53;;;;;;;5.05;4.55;;;;;;;25.60;58.08;100511.44;2175496;81;51550;-74
2022/08/27 09:16:55;;;;;;;7.97;4.80;;;;;;;25.58;58.08;100499.17;2175421;81;50200;-75
2022/08/27 09:19:57;;;;;;;5.45;4.85;;;;;;;25.58;58.08;100497.83;2130196;81;50340;-75
2022/08/27 09:23:20;;;;;;;5.83;4.75;;;;;;;25.58;58.07;100488.34;2175500;81;50680;-75
2022/08/27 09:26:25;;;;;;;4.70;4.30;;;;;;;25.58;58.04;100478.86;2175256;81;51570;-74
2022/08/27 09:29:28;;;;;;;5.12;4.40;;;;;;;25.59;58.01;100480.53;2176007;80;51555;-77
2022/08/27 09:32:32;;;;;;;4.80;4.40;;;;;;;25.59;57.99;100481.88;2175554;81;51528;-75
2022/08/27 09:35:38;;;;;;;4.87;4.17;;;;;;;25.58;58.04;100478.86;2175614;81;49632;-75
2022/08/27 09:38:41;;;;;;;4.83;4.33;;;;;;;25.58;58.08;100476.97;2215163;79;50361;-77
2022/08/27 09:41:46;;;;;;;4.87;4.45;;;;;;;25.58;58.10;100494.58;2239142;79;50603;-75
2022/08/27 09:44:48;;;;;;;4.95;4.45;;;;;;;25.59;58.09;100504.91;2264508;78;50108;-76
2022/08/27 09:48:06;;;;;;;4.42;4.00;;;;;;;25.60;58.08;100506.55;2253542;77;50684;-76
2022/08/27 09:51:11;;;;;;;4.40;4.00;;;;;;;25.59;58.04;100506.27;2280029;77;50433;-75
2022/08/27 09:54:28;;;;;;;5.58;4.45;;;;;;;25.60;58.06;100516.03;2287578;76;50341;-76
2022/08/27 09:57:36;;;;;;;5.53;4.62;;;;;;;25.60;58.05;100533.11;2305282;76;50660;-76
2022/08/27 10:00:39;;;;;;;4.83;4.28;;;;;;;25.59;58.04;100538.78;2290723;76;50948;-76
2022/08/27 10:03:42;;;;;;;5.75;4.45;;;;;;;25.59;58.06;100536.89;2315169;76;50308;-75
2022/08/27 10:06:49;;;;;;;4.40;4.00;;;;;;;25.60;58.08;100539.88;2295834;75;51488;-76
2022/08/27 10:10:12;;;;;;;4.65;4.25;;;;;;;25.59;58.09;100547.73;2298313;76;50693;-76
2022/08/27 10:13:27;;;;;;;5.90;4.22;;;;;;;25.60;58.05;100551.27;2315371;76;50810;-75
2022/08/27 10:16:33;;;;;;;5.42;4.17;;;;;;;25.59;58.05;100553.69;2315183;76;50492;-75
2022/08/27 10:19:47;;;;;;;6.05;4.40;;;;;;;25.61;58.03;100550.19;2314762;76;50294;-78
2022/08/27 10:23:08;;;;;;;4.83;4.42;;;;;;;25.60;57.99;100545.30;2314938;76;50777;-76
2022/08/27 10:26:19;;;;;;;4.53;4.10;;;;;;;25.61;57.94;100546.13;2219596;79;49976;-75
2022/08/27 10:29:37;;;;;;;4.78;4.28;;;;;;;25.59;57.98;100555.04;2309361;76;51434;-75
2022/08/27 10:32:45;;;;;;;4.58;4.17;;;;;;;25.59;57.97;100546.38;2315029;76;50394;-75
2022/08/27 10:35:50;;;;;;;4.58;4.00;;;;;;;25.60;57.96;100555.33;2314943;75;51451;-76
2022/08/27 10:39:26;;;;;;;4.60;4.12;;;;;;;25.59;58.02;100561.28;2324465;75;50695;-75
2022/08/27 10:42:37;;;;;;;5.20;4.30;;;;;;;25.59;58.02;100559.92;2359710;75;49625;-75
2022/08/27 10:46:06;;;;;;;5.05;4.30;;;;;;;25.60;58.00;100556.68;2329574;75;51480;-76
2022/08/27 10:49:35;;;;;;;4.72;4.20;;;;;;;25.59;57.98;100563.98;2354810;75;50516;-75
2022/08/27 10:52:46;;;;;;;5.97;4.12;;;;;;;25.60;57.98;100559.39;2329627;75;50919;-75
2022/08/27 10:55:51;;;;;;;5.47;4.20;;;;;;;25.60;57.95;100560.74;2354889;75;51510;-75
2022/08/27 10:58:59;;;;;;;4.80;3.90;;;;;;;25.60;57.98;100562.09;2268220;76;50215;-75
2022/08/27 11:02:21;;;;;;;4.20;3.80;;;;;;;25.59;58.01;100565.87;2300493;77;51555;-75
2022/08/27 11:05:32;;;;;;;4.42;4.03;;;;;;;25.60;57.99;100568.87;2288359;76;50311;-76
2022/08/27 11:08:40;;;;;;;4.85;4.22;;;;;;;25.61;57.94;100561.03;2275055;76;52533;-76
2022/08/27 11:11:45;;;;;;;4.50;4.10;;;;;;;25.61;57.94;100560.52;2300105;76;50402;-76
2022/08/27 11:14:55;;;;;;;4.50;3.83;;;;;;;25.60;57.98;100564.80;2299908;76;50909;-76
2022/08/27 11:18:07;;;;;;;5.83;3.90;;;;;;;25.58;58.01;100560.14;2295702;76;51572;-76
2022/08/27 11:21:21;;;;;;;4.10;3.80;;;;;;;25.59;57.96;100571.30;2300561;77;50216;-76
2022/08/27 11:24:41;;;;;;;4.58;4.10;;;;;;;25.60;57.91;100566.16;2300780;77;51621;-76
2022/08/27 11:27:43;;;;;;;3.90;3.52;;;;;;;25.59;57.93;100560.45;2263791;77;50804;-76
2022/08/27 11:30:55;;;;;;;4.90;4.12;;;;;;;25.61;57.80;100558.31;2297931;77;51504;-75
2022/08/27 11:34:34;;;;;;;5.20;4.22;;;;;;;25.61;57.75;100554.25;2264865;76;52531;-75
2022/08/27 11:37:45;;;;;;;5.83;4.50;;;;;;;25.60;57.82;100563.45;2315478;75;51419;-75
2022/08/27 11:41:13;;;;;;;3.75;3.45;;;;;;;25.59;57.84;100565.34;2367000;75;50116;-75
2022/08/27 11:44:16;;;;;;;4.28;3.87;;;;;;;25.59;57.82;100561.28;2260419;78;51629;-74
2022/08/27 11:47:21;;;;;;;5.03;3.77;;;;;;;25.59;57.86;100557.22;2260873;78;51529;-74
2022/08/27 11:50:23;;;;;;;4.30;3.80;;;;;;;25.59;57.84;100554.50;2261049;77;51482;-74
2022/08/27 11:53:31;;;;;;;4.30;3.87;;;;;;;25.61;57.85;100559.67;2236479;78;51651;-76
2022/08/27 11:56:41;;;;;;;4.33;3.92;;;;;;;25.60;57.86;100569.69;2261258;76;50838;-75
2022/08/27 11:59:43;;;;;;;4.17;3.83;;;;;;;25.59;57.87;100565.87;2223248;79;51697;-76
2022/08/27 12:03:09;;;;;;;4.85;3.70;;;;;;;25.59;57.86;100555.86;2246843;78;51460;-75
2022/08/27 12:06:18;;;;;;;;;;;;;;;25.61;57.87;100561.03;2271338;76;51534;-75
2022/08/27 12:09:22;;;;;;;4.00;3.60;;;;;;;25.60;57.80;100560.74;2214503;79;51625;-75
2022/08/27 12:12:33;;;;;;;4.42;3.95;;;;;;;25.60;57.83;100556.68;2213642;80;51345;-75
2022/08/27 12:15:41;;;;;;;4.30;3.90;;;;;;;25.60;57.79;100553.44;2154599;82;49915;-75
2022/08/27 12:19:06;;;;;;;4.12;3.72;;;;;;;25.61;57.80;100556.96;2132355;82;51863;-76
2022/08/27 12:22:23;;;;;;;4.55;3.60;;;;;;;25.61;57.82;100557.81;2157688;81;51486;-75
2022/08/27 12:25:25;;;;;;;3.75;3.40;;;;;;;25.61;57.85;100556.96;2154569;81;51059;-75
2022/08/27 12:28:27;;;;;;;3.87;3.58;;;;;;;25.60;57.89;100549.91;2155807;81;50720;-75
2022/08/27 12:31:29;;;;;;;3.92;3.52;;;;;;;25.58;57.93;100552.83;2155573;82;50260;-76
2022/08/27 12:34:33;;;;;;;3.98;3.55;;;;;;;25.57;58.02;100551.20;2132548;81;51483;-77
2022/08/27 12:37:41;;;;;;;4.12;3.70;;;;;;;25.56;58.03;100544.64;2227282;79;50831;-75
2022/08/27 12:40:51;;;;;;;4.37;3.98;;;;;;;25.58;58.05;100546.59;2242590;79;51624;-75
2022/08/27 12:44:07;;;;;;;3.80;3.42;;;;;;;25.58;58.03;100541.17;2217549;79;51714;-75
2022/08/27 12:47:10;;;;;;;;;;;;;;;25.60;58.01;100543.95;2242447;79;50219;-74
2022/08/27 12:50:13;;;;;;;5.62;4.15;;;;;;;25.63;58.00;100541.30;2239832;79;50820;-74
2022/08/27 12:53:18;;;;;;;4.37;3.98;;;;;;;25.62;57.94;100537.77;2267779;76;51129;-74
2022/08/27 12:56:36;;;;;;;5.03;3.75;;;;;;;25.66;57.91;100539.48;2315435;76;51812;-76
2022/08/27 13:00:07;;;;;;;4.22;3.75;;;;;;;25.67;57.86;100538.44;2315033;76;50348;-76
2022/08/27 13:03:23;;;;;;;4.03;3.72;;;;;;;25.66;57.81;100535.41;2315318;76;22258;-75
2022/08/27 13:06:32;;;;;;;4.03;3.72;;;;;;;25.64;57.90;100530.78;2334449;75;51475;-75
2022/08/27 13:09:36;;;;;;;4.28;3.87;;;;;;;25.64;57.89;100521.30;2344493;75;50065;-75
2022/08/27 13:12:38;;;;;;;4.45;3.67;;;;;;;25.63;57.93;100527.76;2320535;75;51584;-75
2022/08/27 13:15:46;;;;;;;4.40;3.65;;;;;;;25.62;57.92;100522.88;2344428;75;51001;-75
2022/08/27 13:18:49;;;;;;;4.03;3.70;;;;;;;25.64;57.93;100520.77;2344483;75;51163;-75
2022/08/27 13:21:51;;;;;;;3.65;3.35;;;;;;;25.69;57.83;100524.13;2329841;75;50066;-76
2022/08/27 13:24:54;;;;;;;3.55;3.25;;;;;;;25.70;57.83;100525.77;2355044;75;51605;-75
2022/08/27 13:28:06;;;;;;;3.98;3.58;;;;;;;25.68;57.86;100525.17;2354682;75;50431;-76
2022/08/27 13:31:03;;;;;;;5.45;3.87;;;;;;;25.69;57.79;100521.42;2354060;75;22764;-75
2022/08/27 13:34:05;;;;;;;4.08;3.62;;;;;;;25.70;57.82;100516.28;2344985;75;51609;-75
2022/08/27 13:37:20;;;;;;;4.42;3.70;;;;;;;25.71;57.81;100518.46;2331255;75;50675;-75
2022/08/27 13:40:40;;;;;;;4.37;3.98;;;;;;;25.71;57.80;100513.04;2315080;76;53612;-75
2022/08/27 13:43:44;;;;;;;4.85;3.70;;;;;;;25.71;57.83;100516.57;2313361;76;51534;-76
2022/08/27 13:46:56;;;;;;;4.08;3.77;;;;;;;25.69;57.86;100508.37;2290341;76;49510;-75
2022/08/27 13:50:09;;;;;;;3.42;3.12;;;;;;;25.68;57.88;100513.52;2314896;76;50583;-76
2022/08/27 13:56:34;;;;;;;4.03;3.62;;;;;;;25.69;57.88;100518.71;2315377;76;22258;-75
2022/08/27 13:59:38;;;;;;;4.45;4.05;;;;;;;25.71;57.83;100511.15;2290572;76;49542;-75
2022/08/27 14:02:41;;;;;;;3.95;3.58;;;;;;;25.73;57.78;100517.70;2290934;76;50121;-75
2022/08/27 14:05:46;;;;;;;4.17;3.42;;;;;;;25.72;57.82;100507.40;2322636;75;50392;-76
2022/08/27 14:08:49;;;;;;;4.17;3.42;;;;;;;25.74;57.74;100511.21;2299868;76;51636;-75
2022/08/27 14:12:00;;;;;;;4.67;3.50;;;;;;;25.74;57.75;100515.27;2296661;76;52435;-75
2022/08/27 14:15:30;;;;;;;3.90;3.60;;;;;;;25.76;57.77;100515.34;2322636;76;50348;-74
2022/08/27 14:18:33;;;;;;;4.30;3.90;;;;;;;25.79;57.67;100511.33;2323202;76;51536;-76
2022/08/27 14:21:38;;;;;;;4.08;3.75;;;;;;;25.81;57.58;100514.11;2323529;76;50732;-76
2022/08/27 14:24:40;;;;;;;3.63;3.30;;;;;;;25.81;57.68;100511.39;2297664;76;49573;-75
2022/08/27 14:27:43;;;;;;;4.35;3.60;;;;;;;25.81;57.64;100516.81;2322754;76;50299;-76